createdAt,value
2024-01-11T00:00:31.110Z,60.37
2024-01-11T00:01:31.069Z,62.43
2024-01-11T00:02:31.248Z,62.27
2024-01-11T00:03:31.054Z,61.17
2024-01-11T00:04:31.102Z,63.38
2024-01-11T00:05:31.202Z,62.69
2024-01-11T00:06:31.233Z,62.19
2024-01-11T00:07:31.153Z,60.94
2024-01-11T00:08:31.231Z,62.74
2024-01-11T00:09:31.266Z,62.95
2024-01-11T00:10:31.274Z,62.97
2024-01-11T00:11:31.301Z,62.68
2024-01-11T00:12:31.274Z,63.31
2024-01-11T00:13:31.282Z,63.24
2024-01-11T00:14:31.370Z,65.62
2024-01-11T00:15:31.350Z,63.00
2024-01-11T00:16:31.306Z,63.04
2024-01-11T00:17:31.379Z,63.09
2024-01-11T00:18:31.407Z,64.02
2024-01-11T00:19:31.374Z,63.29
2024-01-11T00:20:31.346Z,62.69
2024-01-11T00:21:31.391Z,62.96
2024-01-11T00:22:31.292Z,62.99
2024-01-11T00:23:31.336Z,61.59
2024-01-11T00:24:31.306Z,62.38
2024-01-11T00:25:32.317Z,60.95
2024-01-11T00:26:31.363Z,60.39
2024-01-11T00:27:31.307Z,62.79
2024-01-11T00:28:31.308Z,61.45
2024-01-11T00:29:31.391Z,62.89
2024-01-11T00:30:31.342Z,62.41
2024-01-11T00:31:31.309Z,62.95
2024-01-11T00:32:31.400Z,62.55
2024-01-11T00:33:31.366Z,61.07
2024-01-11T00:34:31.398Z,60.38
2024-01-11T00:35:31.382Z,59.99
2024-01-11T00:36:31.345Z,59.21
2024-01-11T00:37:31.334Z,58.90
2024-01-11T00:38:31.417Z,57.73
2024-01-11T00:39:31.322Z,56.84
2024-01-11T00:40:31.329Z,58.85
2024-01-11T00:41:31.409Z,59.04
2024-01-11T00:42:31.338Z,60.21
2024-01-11T00:43:31.332Z,60.12
2024-01-11T00:44:31.385Z,60.27
2024-01-11T00:45:31.342Z,59.53
2024-01-11T00:46:31.366Z,58.05
2024-01-11T00:47:31.416Z,55.69
2024-01-11T00:48:31.437Z,56.48
2024-01-11T00:49:31.415Z,56.83
2024-01-11T00:50:31.372Z,55.42
2024-01-11T00:51:31.358Z,55.57
2024-01-11T00:52:31.393Z,57.16
2024-01-11T00:53:31.480Z,57.54
2024-01-11T00:54:31.371Z,55.53
2024-01-11T00:55:31.382Z,57.06
2024-01-11T00:56:31.416Z,58.08
2024-01-11T00:57:31.415Z,57.17
2024-01-11T00:58:31.479Z,58.71
2024-01-11T00:59:31.672Z,56.83
2024-01-11T01:00:31.554Z,56.33
2024-01-11T01:01:31.568Z,56.35
2024-01-11T01:02:31.681Z,57.18
2024-01-11T01:03:31.784Z,57.98
2024-01-11T01:04:31.668Z,58.06
2024-01-11T01:05:31.843Z,57.75
2024-01-11T01:06:31.853Z,58.89
2024-01-11T01:07:31.785Z,57.65
2024-01-11T01:08:31.865Z,56.88
2024-01-11T01:09:31.885Z,56.85
2024-01-11T01:10:31.856Z,57.41
2024-01-11T01:11:31.926Z,56.78
2024-01-11T01:12:31.875Z,56.55
2024-01-11T01:13:31.889Z,55.69
2024-01-11T01:14:32.007Z,55.01
2024-01-11T01:15:31.932Z,55.06
2024-01-11T01:16:31.995Z,54.44
2024-01-11T01:17:32.064Z,55.54
2024-01-11T01:18:32.088Z,57.18
2024-01-11T01:19:32.068Z,57.26
2024-01-11T01:20:32.012Z,57.55
2024-01-11T01:21:32.047Z,57.89
2024-01-11T01:22:32.019Z,57.23
2024-01-11T01:23:32.124Z,57.38
2024-01-11T01:24:32.050Z,58.03
2024-01-11T01:25:32.074Z,58.53
2024-01-11T01:26:32.054Z,57.33
2024-01-11T01:27:32.014Z,57.77
2024-01-11T01:28:32.018Z,59.26
2024-01-11T01:29:32.112Z,60.51
2024-01-11T01:30:32.111Z,62.13
2024-01-11T01:31:32.046Z,59.60
2024-01-11T01:32:32.327Z,56.66
2024-01-11T01:33:32.203Z,55.88
2024-01-11T01:34:32.171Z,57.48
2024-01-11T01:35:32.117Z,56.97
2024-01-11T01:36:32.033Z,57.98
2024-01-11T01:37:32.048Z,57.95
2024-01-11T01:38:32.282Z,57.67
2024-01-11T01:39:32.098Z,57.04
2024-01-11T01:40:32.075Z,58.02
2024-01-11T01:41:32.138Z,58.00
2024-01-11T01:42:32.046Z,58.01
2024-01-11T01:43:32.061Z,57.74
2024-01-11T01:44:32.139Z,58.02
2024-01-11T01:45:32.059Z,58.64
2024-01-11T01:46:32.114Z,58.40
2024-01-11T01:47:32.322Z,57.57
2024-01-11T01:48:32.194Z,56.50
2024-01-11T01:49:32.122Z,55.87
2024-01-11T01:50:32.191Z,54.20
2024-01-11T01:51:32.066Z,54.53
2024-01-11T01:52:32.074Z,53.40
2024-01-11T01:53:32.113Z,53.03
2024-01-11T01:54:32.090Z,52.72
2024-01-11T01:55:32.190Z,52.58
2024-01-11T01:56:32.172Z,54.73
2024-01-11T01:57:32.124Z,55.08
2024-01-11T01:58:32.137Z,54.94
2024-01-11T01:59:32.157Z,55.68
2024-01-11T02:00:32.081Z,57.94
2024-01-11T02:01:32.148Z,57.92
2024-01-11T02:02:32.099Z,57.04
2024-01-11T02:03:32.161Z,57.22
2024-01-11T02:04:32.097Z,57.34
2024-01-11T02:05:32.275Z,57.41
2024-01-11T02:06:32.268Z,55.83
2024-01-11T02:07:32.103Z,57.70
2024-01-11T02:08:32.177Z,55.68
2024-01-11T02:09:32.141Z,58.31
2024-01-11T02:10:32.116Z,57.66
2024-01-11T02:11:32.125Z,58.51
2024-01-11T02:12:32.108Z,58.97
2024-01-11T02:13:32.137Z,60.44
2024-01-11T02:14:32.141Z,61.58
2024-01-11T02:15:32.153Z,63.96
2024-01-11T02:16:32.137Z,63.56
2024-01-11T02:17:32.224Z,63.08
2024-01-11T02:18:32.207Z,65.87
2024-01-11T02:19:32.198Z,67.89
2024-01-11T02:20:32.216Z,67.93
2024-01-11T02:21:32.169Z,68.00
2024-01-11T02:22:32.193Z,68.14
2024-01-11T02:23:32.282Z,69.10
2024-01-11T02:24:32.169Z,70.07
2024-01-11T02:25:32.178Z,72.13
2024-01-11T02:26:32.227Z,68.04
2024-01-11T02:27:32.157Z,68.43
2024-01-11T02:28:32.161Z,68.61
2024-01-11T02:29:32.278Z,71.19
2024-01-11T02:30:32.224Z,73.67
2024-01-11T02:31:32.190Z,75.54
2024-01-11T02:32:32.225Z,74.23
2024-01-11T02:33:32.268Z,75.77
2024-01-11T02:34:32.223Z,75.44
2024-01-11T02:35:32.258Z,76.17
2024-01-11T02:36:32.295Z,77.96
2024-01-11T02:37:32.286Z,77.15
2024-01-11T02:38:32.340Z,77.17
2024-01-11T02:39:32.299Z,75.73
2024-01-11T02:40:32.307Z,76.96
2024-01-11T02:41:32.341Z,75.03
2024-01-11T02:42:32.292Z,75.84
2024-01-11T02:43:32.299Z,76.09
2024-01-11T02:44:32.372Z,76.36
2024-01-11T02:45:32.311Z,76.68
2024-01-11T02:46:32.330Z,78.05
2024-01-11T02:47:32.553Z,76.19
2024-01-11T02:48:32.449Z,76.19
2024-01-11T02:49:32.435Z,76.34
2024-01-11T02:50:32.368Z,76.79
2024-01-11T02:51:32.348Z,77.40
2024-01-11T02:52:32.338Z,79.29
2024-01-11T02:53:32.369Z,80.04
2024-01-11T02:54:32.346Z,80.20
2024-01-11T02:55:32.347Z,81.15
2024-01-11T02:56:32.379Z,79.10
2024-01-11T02:57:32.365Z,81.73
2024-01-11T02:58:32.468Z,81.10
2024-01-11T02:59:32.565Z,80.90
2024-01-11T03:00:32.584Z,80.91
2024-01-11T03:01:32.505Z,80.46
2024-01-11T03:02:32.557Z,81.44
2024-01-11T03:03:32.588Z,81.47
2024-01-11T03:04:32.542Z,80.90
2024-01-11T03:05:32.679Z,80.65
2024-01-11T03:06:32.564Z,80.44
2024-01-11T03:07:32.536Z,79.28
2024-01-11T03:08:32.597Z,80.28
2024-01-11T03:09:32.542Z,80.12
2024-01-11T03:10:32.541Z,79.96
2024-01-11T03:11:32.567Z,80.43
2024-01-11T03:12:32.557Z,79.68
2024-01-11T03:13:32.563Z,78.73
2024-01-11T03:14:32.622Z,79.42
2024-01-11T03:15:32.562Z,77.90
2024-01-11T03:16:32.560Z,77.08
2024-01-11T03:17:32.673Z,77.94
2024-01-11T03:18:32.722Z,76.84
2024-01-11T03:19:32.659Z,74.36
2024-01-11T03:20:32.627Z,73.15
2024-01-11T03:21:32.584Z,72.56
2024-01-11T03:22:32.573Z,72.50
2024-01-11T03:23:32.666Z,74.11
2024-01-11T03:24:32.581Z,71.85
2024-01-11T03:25:32.586Z,72.69
2024-01-11T03:26:32.618Z,74.48
2024-01-11T03:27:32.580Z,73.33
2024-01-11T03:28:32.575Z,75.66
2024-01-11T03:29:32.659Z,76.96
2024-01-11T03:30:32.618Z,78.14
2024-01-11T03:31:32.582Z,79.30
2024-01-11T03:32:32.670Z,77.40
2024-01-11T03:33:32.801Z,80.65
2024-01-11T03:34:32.788Z,80.93
2024-01-11T03:35:32.741Z,79.66
2024-01-11T03:36:32.755Z,78.98
2024-01-11T03:37:32.785Z,80.17
2024-01-11T03:38:32.956Z,80.68
2024-01-11T03:39:32.824Z,80.00
2024-01-11T03:40:32.812Z,78.18
2024-01-11T03:41:32.864Z,78.22
2024-01-11T03:42:32.822Z,79.37
2024-01-11T03:43:32.837Z,77.26
2024-01-11T03:44:32.890Z,80.56
2024-01-11T03:45:32.859Z,80.58
2024-01-11T03:46:32.836Z,80.69
2024-01-11T03:47:32.876Z,80.68
2024-01-11T03:48:32.917Z,81.82
2024-01-11T03:49:33.009Z,82.87
2024-01-11T03:50:32.953Z,80.65
2024-01-11T03:51:32.841Z,81.39
2024-01-11T03:52:32.854Z,82.22
2024-01-11T03:53:32.858Z,83.74
2024-01-11T03:54:32.940Z,86.52
2024-01-11T03:55:32.919Z,87.68
2024-01-11T03:56:32.885Z,87.74
2024-01-11T03:57:32.885Z,88.07
2024-01-11T03:58:32.857Z,88.98
2024-01-11T03:59:32.922Z,87.82
2024-01-11T04:00:32.885Z,88.50
2024-01-11T04:01:32.889Z,89.77
2024-01-11T04:02:32.924Z,91.12
2024-01-11T04:03:32.956Z,95.74
2024-01-11T04:04:32.885Z,95.79
2024-01-11T04:05:32.963Z,94.32
2024-01-11T04:06:33.064Z,95.94
2024-01-11T04:07:32.899Z,97.01
2024-01-11T04:08:32.944Z,96.31
2024-01-11T04:09:32.894Z,96.44
2024-01-11T04:10:32.891Z,97.34
2024-01-11T04:11:32.998Z,97.09
2024-01-11T04:12:32.913Z,99.08
2024-01-11T04:13:32.957Z,98.66
2024-01-11T04:14:32.945Z,98.68
2024-01-11T04:15:32.909Z,98.73
2024-01-11T04:16:32.948Z,99.31
2024-01-11T04:17:33.084Z,99.45
2024-01-11T04:18:32.990Z,100.48
2024-01-11T04:19:33.001Z,99.61
2024-01-11T04:20:33.019Z,100.33
2024-01-11T04:21:32.993Z,98.79
2024-01-11T04:22:32.925Z,97.69
2024-01-11T04:23:33.014Z,97.32
2024-01-11T04:24:32.940Z,97.97
2024-01-11T04:25:32.934Z,95.87
2024-01-11T04:26:32.998Z,95.55
2024-01-11T04:27:32.960Z,97.09
2024-01-11T04:28:32.950Z,95.62
2024-01-11T04:29:33.036Z,95.99
2024-01-11T04:30:33.124Z,95.58
2024-01-11T04:31:33.113Z,94.94
2024-01-11T04:32:33.161Z,94.96
2024-01-11T04:33:33.060Z,95.21
2024-01-11T04:34:33.136Z,95.85
2024-01-11T04:35:33.053Z,96.81
2024-01-11T04:36:33.032Z,95.07
2024-01-11T04:37:33.082Z,95.61
2024-01-11T04:38:33.184Z,96.63
2024-01-11T04:39:33.076Z,96.84
2024-01-11T04:40:33.050Z,98.47
2024-01-11T04:41:33.151Z,96.75
2024-01-11T04:42:40.463Z,50.00
2024-01-11T04:43:40.438Z,50.00
2024-01-11T04:44:40.492Z,50.00
2024-01-11T04:45:40.476Z,50.00
2024-01-11T04:46:40.451Z,50.00
2024-01-11T04:47:40.556Z,54.53
2024-01-11T04:48:40.547Z,52.26
2024-01-11T04:49:40.471Z,53.53
2024-01-11T04:50:40.539Z,54.38
2024-01-11T04:51:40.493Z,56.51
2024-01-11T04:52:40.466Z,54.96
2024-01-11T04:53:40.632Z,54.71
2024-01-11T04:54:40.471Z,58.23
2024-01-11T04:55:40.490Z,57.83
2024-01-11T04:56:40.602Z,57.94
2024-01-11T04:57:40.459Z,58.39
2024-01-11T04:58:40.462Z,58.06
2024-01-11T04:59:40.637Z,58.13
2024-01-11T05:00:40.582Z,58.14
2024-01-11T05:01:40.503Z,59.10
2024-01-11T05:02:40.672Z,60.48
2024-01-11T05:03:40.562Z,61.75
2024-01-11T05:04:40.506Z,58.26
2024-01-11T05:05:40.749Z,56.47
2024-01-11T05:06:40.550Z,56.61
2024-01-11T05:07:40.476Z,55.19
2024-01-11T05:08:40.581Z,57.55
2024-01-11T05:09:40.488Z,57.62
2024-01-11T05:10:40.500Z,57.83
2024-01-11T05:11:40.594Z,57.59
2024-01-11T05:12:40.508Z,57.93
2024-01-11T05:13:40.522Z,58.81
2024-01-11T05:14:40.614Z,60.13
2024-01-11T05:15:40.497Z,57.79
2024-01-11T05:16:40.530Z,58.80
2024-01-11T05:17:40.591Z,61.12
2024-01-11T05:18:40.607Z,65.07
2024-01-11T05:19:40.565Z,69.67
2024-01-11T05:20:40.560Z,70.40
2024-01-11T05:21:40.530Z,70.42
2024-01-11T05:22:40.534Z,70.83
2024-01-11T05:23:40.576Z,70.95
2024-01-11T05:24:40.532Z,72.13
2024-01-11T05:25:40.535Z,73.55
2024-01-11T05:26:40.605Z,73.88
2024-01-11T05:27:40.533Z,77.22
2024-01-11T05:28:40.569Z,74.82
2024-01-11T05:29:40.626Z,74.40
2024-01-11T05:30:40.752Z,71.97
2024-01-11T05:31:40.679Z,74.98
2024-01-11T05:32:40.614Z,73.69
2024-01-11T05:33:40.733Z,73.78
2024-01-11T05:34:40.696Z,74.18
2024-01-11T05:35:40.598Z,75.61
2024-01-11T05:36:40.567Z,77.08
2024-01-11T05:37:40.569Z,73.93
2024-01-11T05:38:40.712Z,75.07
2024-01-11T05:39:40.589Z,74.08
2024-01-11T05:40:40.604Z,75.34
2024-01-11T05:41:40.631Z,74.15
2024-01-11T05:42:40.622Z,76.31
2024-01-11T05:43:40.668Z,79.33
2024-01-11T05:44:40.646Z,87.29
2024-01-11T05:45:47.287Z,91.79
2024-01-11T05:46:41.620Z,74.47
2024-01-11T05:47:40.753Z,74.38
2024-01-11T05:48:40.845Z,76.99
2024-01-11T05:49:40.625Z,81.09
2024-01-11T05:50:40.712Z,87.19
2024-01-11T05:51:40.644Z,97.07
2024-01-11T05:52:40.639Z,100.84
2024-01-11T05:53:40.752Z,101.33
2024-01-11T05:54:40.642Z,104.31
2024-01-11T05:55:40.623Z,105.00
2024-01-11T05:56:40.672Z,105.39
2024-01-11T05:57:40.626Z,105.49
2024-01-11T05:58:40.692Z,106.21
2024-01-11T05:59:40.729Z,107.53
2024-01-11T06:00:40.741Z,110.60
2024-01-11T06:01:40.682Z,112.06
2024-01-11T06:02:40.751Z,105.68
2024-01-11T06:03:40.844Z,106.56
2024-01-11T06:04:40.646Z,107.08
2024-01-11T06:05:40.806Z,108.97
2024-01-11T06:06:40.684Z,106.55
2024-01-11T06:07:40.673Z,109.10
2024-01-11T06:08:40.699Z,110.29
2024-01-11T06:09:40.686Z,108.71
2024-01-11T06:10:40.681Z,109.50
2024-01-11T06:11:40.859Z,110.42
2024-01-11T06:12:40.656Z,111.80
2024-01-11T06:13:40.659Z,111.54
2024-01-11T06:14:40.748Z,111.14
2024-01-11T06:15:40.678Z,111.60
2024-01-11T06:16:40.710Z,116.34
2024-01-11T06:17:40.800Z,116.11
2024-01-11T06:18:40.766Z,119.08
2024-01-11T06:19:40.672Z,119.24
2024-01-11T06:20:40.792Z,117.21
2024-01-11T06:21:40.692Z,118.93
2024-01-11T06:22:42.885Z,118.45
2024-01-11T06:23:40.778Z,121.68
2024-01-11T06:24:40.712Z,121.80
2024-01-11T06:25:40.757Z,122.82
2024-01-11T06:26:40.747Z,123.41
2024-01-11T06:27:40.693Z,123.51
2024-01-11T06:28:40.714Z,123.97
2024-01-11T06:29:40.883Z,124.07
2024-01-11T06:30:40.848Z,123.47
2024-01-11T06:31:40.712Z,120.58
2024-01-11T06:32:40.876Z,112.98
2024-01-11T06:33:40.778Z,108.85
2024-01-11T06:34:40.791Z,105.61
2024-01-11T06:35:40.751Z,104.57
2024-01-11T06:36:40.714Z,109.94
2024-01-11T06:37:40.831Z,123.92
2024-01-11T06:38:40.879Z,136.87
2024-01-11T06:39:40.757Z,141.71
2024-01-11T06:40:40.729Z,144.84
2024-01-11T06:41:40.884Z,146.44
2024-01-11T06:42:40.753Z,147.23
2024-01-11T06:43:40.751Z,145.71
2024-01-11T06:44:40.831Z,144.19
2024-01-11T06:45:40.765Z,142.18
2024-01-11T06:46:40.772Z,143.91
2024-01-11T06:47:40.947Z,142.40
2024-01-11T06:48:41.084Z,142.82
2024-01-11T06:49:40.789Z,143.98
2024-01-11T06:50:40.830Z,144.77
2024-01-11T06:51:40.805Z,145.71
2024-01-11T06:52:40.791Z,146.20
2024-01-11T06:53:40.836Z,146.50
2024-01-11T06:54:40.814Z,143.96
2024-01-11T06:55:40.829Z,144.88
2024-01-11T06:56:40.999Z,145.94
2024-01-11T06:57:40.863Z,143.84
2024-01-11T06:58:40.848Z,145.54
2024-01-11T06:59:41.159Z,143.83
2024-01-11T07:00:40.881Z,144.28
2024-01-11T07:01:40.908Z,141.73
2024-01-11T07:02:40.912Z,139.91
2024-01-11T07:03:40.952Z,137.26
2024-01-11T07:04:40.923Z,135.40
2024-01-11T07:05:41.031Z,131.82
2024-01-11T07:06:41.054Z,127.77
2024-01-11T07:07:40.958Z,125.35
2024-01-11T07:08:41.186Z,124.66
2024-01-11T07:09:40.993Z,121.61
2024-01-11T07:10:41.074Z,118.30
2024-01-11T07:11:41.238Z,118.09
2024-01-11T07:12:41.019Z,114.54
2024-01-11T07:13:41.028Z,112.04
2024-01-11T07:14:41.040Z,109.88
2024-01-11T07:15:41.010Z,104.88
2024-01-11T07:16:41.023Z,101.19
2024-01-11T07:17:41.131Z,99.05
2024-01-11T07:18:41.093Z,97.53
2024-01-11T07:19:41.063Z,94.04
2024-01-11T07:20:41.079Z,94.86
2024-01-11T07:21:41.032Z,90.84
2024-01-11T07:22:42.537Z,92.44
2024-01-11T07:23:41.144Z,92.14
2024-01-11T07:24:41.023Z,93.72
2024-01-11T07:25:41.025Z,96.10
2024-01-11T07:26:41.133Z,100.22
2024-01-11T07:27:41.038Z,99.11
2024-01-11T07:28:41.037Z,100.13
2024-01-11T07:29:41.092Z,103.25
2024-01-11T07:30:41.204Z,103.85
2024-01-11T07:31:41.064Z,107.54
2024-01-11T07:32:41.204Z,107.70
2024-01-11T07:33:41.115Z,107.65
2024-01-11T07:34:41.094Z,109.02
2024-01-11T07:35:41.125Z,109.38
2024-01-11T07:36:41.102Z,111.96
2024-01-11T07:37:41.096Z,113.20
2024-01-11T07:38:41.099Z,115.51
2024-01-11T07:39:41.064Z,115.54
2024-01-11T07:40:43.633Z,115.72
2024-01-11T07:41:41.178Z,116.26
2024-01-11T07:42:41.076Z,115.88
2024-01-11T07:43:48.996Z,117.13
2024-01-11T07:44:43.092Z,115.96
2024-01-11T07:45:41.111Z,117.43
2024-01-11T07:46:46.944Z,116.02
2024-01-11T07:47:42.257Z,116.12
2024-01-11T07:48:41.170Z,117.96
2024-01-11T07:49:41.130Z,120.91
2024-01-11T07:50:41.143Z,126.40
2024-01-11T07:51:41.116Z,133.24
2024-01-11T07:52:41.137Z,135.35
2024-01-11T07:53:41.331Z,136.64
2024-01-11T07:54:41.112Z,134.62
2024-01-11T07:55:41.114Z,133.92
2024-01-11T07:56:42.274Z,132.44
2024-01-11T07:57:41.158Z,132.27
2024-01-11T07:58:41.190Z,131.75
2024-01-11T07:59:41.168Z,131.31
2024-01-11T08:00:42.213Z,128.65
2024-01-11T08:01:41.193Z,127.94
2024-01-11T08:02:41.327Z,130.64
2024-01-11T08:03:41.202Z,132.34
2024-01-11T08:04:41.139Z,133.45
2024-01-11T08:05:41.231Z,133.78
2024-01-11T08:06:41.250Z,132.61
2024-01-11T08:07:41.195Z,132.66
2024-01-11T08:08:41.384Z,132.73
2024-01-11T08:09:41.176Z,132.74
2024-01-11T08:10:41.199Z,134.91
2024-01-11T08:11:44.221Z,134.94
2024-01-11T08:12:42.191Z,132.75
2024-01-11T08:13:41.227Z,133.68
2024-01-11T08:14:41.295Z,135.99
2024-01-11T08:15:41.297Z,138.90
2024-01-11T08:16:41.345Z,142.40
2024-01-11T08:17:43.113Z,144.46
2024-01-11T08:18:41.366Z,144.21
2024-01-11T08:19:41.321Z,147.85
2024-01-11T08:20:41.341Z,151.02
2024-01-11T08:21:41.367Z,151.42
2024-01-11T08:22:41.431Z,153.00
2024-01-11T08:23:41.372Z,153.83
2024-01-11T08:24:41.339Z,154.74
2024-01-11T08:25:41.348Z,152.88
2024-01-11T08:26:41.488Z,153.02
2024-01-11T08:27:41.367Z,153.43
2024-01-11T08:28:41.381Z,153.89
2024-01-11T08:29:41.416Z,154.96
2024-01-11T08:30:41.394Z,154.59
2024-01-11T08:31:41.393Z,153.58
2024-01-11T08:32:41.551Z,153.29
2024-01-11T08:33:41.704Z,151.21
2024-01-11T08:34:41.594Z,151.50
2024-01-11T08:35:41.415Z,153.76
2024-01-11T08:36:41.425Z,155.50
2024-01-11T08:37:41.450Z,157.85
2024-01-11T08:38:41.429Z,157.91
2024-01-11T08:39:43.296Z,158.70
2024-01-11T08:40:41.382Z,158.18
2024-01-11T08:41:41.552Z,157.99
2024-01-11T08:42:41.525Z,156.31
2024-01-11T08:43:41.399Z,157.05
2024-01-11T08:44:41.476Z,156.59
2024-01-11T08:45:41.446Z,157.44
2024-01-11T08:46:41.438Z,156.91
2024-01-11T08:47:42.321Z,155.60
2024-01-11T08:48:41.601Z,155.42
2024-01-11T08:49:41.442Z,152.77
2024-01-11T08:50:41.569Z,153.00
2024-01-11T08:51:41.520Z,151.39
2024-01-11T08:52:41.434Z,151.16
2024-01-11T08:53:41.537Z,153.54
2024-01-11T08:54:41.425Z,152.25
2024-01-11T08:55:42.884Z,154.66
2024-01-11T08:56:41.566Z,155.09
2024-01-11T08:57:41.489Z,156.54
2024-01-11T08:58:41.467Z,155.05
2024-01-11T08:59:41.569Z,155.12
2024-01-11T09:00:41.608Z,155.05
2024-01-11T09:01:47.055Z,153.26
2024-01-11T09:02:42.625Z,153.46
2024-01-11T09:03:41.676Z,149.12
2024-01-11T09:04:41.535Z,150.47
2024-01-11T09:05:41.578Z,147.35
2024-01-11T09:06:41.580Z,150.07
2024-01-11T09:07:41.496Z,146.98
2024-01-11T09:08:41.625Z,146.15
2024-01-11T09:09:47.648Z,148.16
2024-01-11T09:10:42.531Z,146.33
2024-01-11T09:11:41.594Z,144.92
2024-01-11T09:12:41.528Z,144.78
2024-01-11T09:13:41.551Z,145.15
2024-01-11T09:14:41.612Z,143.33
2024-01-11T09:15:41.522Z,138.04
2024-01-11T09:16:41.513Z,131.29
2024-01-11T09:17:41.651Z,126.25
2024-01-11T09:18:42.801Z,121.64
2024-01-11T09:19:41.862Z,116.72
2024-01-11T09:20:41.583Z,112.64
2024-01-11T09:21:41.532Z,109.13
2024-01-11T09:22:41.559Z,102.82
2024-01-11T09:23:41.678Z,96.95
2024-01-11T09:24:41.540Z,91.93
2024-01-11T09:25:42.189Z,89.89
2024-01-11T09:26:41.664Z,84.66
2024-01-11T09:27:41.682Z,82.38
2024-01-11T09:28:41.597Z,78.05
2024-01-11T09:29:41.637Z,72.69
2024-01-11T09:30:41.589Z,70.00
2024-01-11T09:31:41.575Z,70.03
2024-01-11T09:32:41.790Z,71.02
2024-01-11T09:33:41.931Z,73.44
2024-01-11T09:34:41.734Z,76.26
2024-01-11T09:35:41.693Z,74.78
2024-01-11T09:36:41.574Z,79.16
2024-01-11T09:37:41.652Z,73.11
2024-01-11T09:38:41.762Z,72.21
2024-01-11T09:39:41.652Z,75.70
2024-01-11T09:40:41.715Z,78.83
2024-01-11T09:41:41.720Z,85.46
2024-01-11T09:42:41.555Z,85.47
2024-01-11T09:43:41.548Z,84.89
2024-01-11T09:44:41.851Z,80.90
2024-01-11T09:45:41.552Z,76.85
2024-01-11T09:46:42.215Z,72.91
2024-01-11T09:47:41.613Z,70.45
2024-01-11T09:48:41.675Z,66.20
2024-01-11T09:49:41.553Z,64.10
2024-01-11T09:50:41.609Z,65.08
2024-01-11T09:51:41.595Z,55.83
2024-01-11T09:52:41.589Z,40.77
2024-01-11T09:53:41.665Z,48.37
2024-01-11T09:54:41.607Z,54.07
2024-01-11T09:55:41.593Z,50.00
2024-01-11T09:56:41.623Z,49.55
2024-01-11T09:57:41.627Z,41.55
2024-01-11T09:58:41.596Z,34.16
2024-01-11T09:59:41.750Z,30.38
2024-01-11T10:00:41.704Z,29.92
2024-01-11T10:01:41.597Z,26.79
2024-01-11T10:02:41.718Z,51.26
2024-01-11T10:03:41.662Z,56.74
2024-01-11T10:04:41.616Z,62.85
2024-01-11T10:05:41.653Z,73.71
2024-01-11T10:06:41.626Z,90.07
2024-01-11T10:07:41.614Z,103.54
2024-01-11T10:08:41.648Z,115.77
2024-01-11T10:09:41.648Z,127.52
2024-01-11T10:10:41.806Z,136.96
2024-01-11T10:11:41.820Z,147.18
2024-01-11T10:12:41.632Z,155.34
2024-01-11T10:13:42.630Z,163.15
2024-01-11T10:14:41.700Z,167.43
2024-01-11T10:15:41.674Z,174.69
2024-01-11T10:16:41.683Z,179.33
2024-01-11T10:17:41.995Z,184.91
2024-01-11T10:18:41.817Z,191.39
2024-01-11T10:19:41.819Z,190.82
2024-01-11T10:20:41.775Z,196.69
2024-01-11T10:21:41.701Z,193.77
2024-01-11T10:22:41.706Z,193.82
2024-01-11T10:23:41.845Z,194.29
2024-01-11T10:24:41.732Z,194.06
2024-01-11T10:25:41.705Z,192.04
2024-01-11T10:26:41.797Z,186.57
2024-01-11T10:27:41.698Z,185.55
2024-01-11T10:28:41.726Z,188.69
2024-01-11T10:29:41.774Z,189.94
2024-01-11T10:30:41.759Z,187.47
2024-01-11T10:31:41.797Z,192.28
2024-01-11T10:32:41.863Z,192.58
2024-01-11T10:33:41.812Z,200.00
2024-01-11T10:34:41.737Z,198.89
2024-01-11T10:35:42.717Z,200.41
2024-01-11T10:36:41.721Z,199.86
2024-01-11T10:37:41.730Z,197.79
2024-01-11T10:38:41.821Z,198.44
2024-01-11T10:39:41.739Z,198.94
2024-01-11T10:40:41.742Z,198.50
2024-01-11T10:41:41.881Z,198.48
2024-01-11T10:42:41.827Z,198.87
2024-01-11T10:43:41.874Z,199.44
2024-01-11T10:44:42.059Z,198.30
2024-01-11T10:45:42.067Z,197.57
2024-01-11T10:46:42.161Z,197.76
2024-01-11T10:47:42.265Z,198.07
2024-01-11T10:48:42.396Z,195.07
2024-01-11T10:49:42.526Z,190.96
2024-01-11T10:50:42.419Z,189.51
2024-01-11T10:51:42.338Z,185.69
2024-01-11T10:52:42.330Z,187.12
2024-01-11T10:53:42.378Z,182.59
2024-01-11T10:54:42.398Z,183.34
2024-01-11T10:55:42.349Z,179.50
2024-01-11T10:56:42.693Z,179.08
2024-01-11T10:57:42.758Z,179.09
2024-01-11T10:58:42.345Z,175.51
2024-01-11T10:59:44.365Z,172.54
2024-01-11T11:00:42.653Z,170.22
2024-01-11T11:01:42.385Z,168.38
2024-01-11T11:02:42.489Z,166.88
2024-01-11T11:03:42.418Z,166.75
2024-01-11T11:04:42.407Z,170.20
2024-01-11T11:05:42.599Z,174.03
2024-01-11T11:06:42.513Z,181.88
2024-01-11T11:07:42.448Z,187.71
2024-01-11T11:08:42.548Z,186.13
2024-01-11T11:09:42.549Z,192.95
2024-01-11T11:10:42.546Z,193.04
2024-01-11T11:11:42.651Z,194.05
2024-01-11T11:12:42.561Z,196.95
2024-01-11T11:13:42.544Z,203.34
2024-01-11T11:14:42.791Z,214.24
2024-01-11T11:15:42.558Z,201.21
2024-01-11T11:16:42.572Z,199.20
2024-01-11T11:17:42.683Z,199.80
2024-01-11T11:18:43.391Z,199.05
2024-01-11T11:19:42.679Z,199.56
2024-01-11T11:20:42.865Z,199.71
2024-01-11T11:21:43.071Z,200.30
2024-01-11T11:22:42.731Z,201.58
2024-01-11T11:23:43.046Z,203.85
2024-01-11T11:24:42.744Z,199.89
2024-01-11T11:25:42.701Z,201.34
2024-01-11T11:26:42.826Z,203.97
2024-01-11T11:27:42.708Z,208.05
2024-01-11T11:28:42.707Z,215.13
2024-01-11T11:29:42.777Z,201.56
2024-01-11T11:30:42.920Z,199.93
2024-01-11T11:31:42.774Z,200.00
2024-01-11T11:32:42.858Z,197.62
2024-01-11T11:33:42.877Z,198.14
2024-01-11T11:34:42.815Z,198.28
2024-01-11T11:35:42.820Z,198.62
2024-01-11T11:36:42.928Z,199.53
2024-01-11T11:37:42.754Z,200.75
2024-01-11T11:38:42.972Z,198.36
2024-01-11T11:39:42.761Z,198.97
2024-01-11T11:40:42.828Z,200.78
2024-01-11T11:41:42.760Z,202.64
2024-01-11T11:42:42.810Z,205.48
2024-01-11T11:43:42.813Z,199.02
2024-01-11T11:44:42.825Z,199.52
2024-01-11T11:45:42.782Z,197.45
2024-01-11T11:46:42.746Z,196.70
2024-01-11T11:47:43.320Z,198.82
2024-01-11T11:48:43.005Z,200.00
2024-01-11T11:49:42.903Z,199.36
2024-01-11T11:50:42.808Z,198.89
2024-01-11T11:51:42.931Z,199.08
2024-01-11T11:52:42.764Z,199.58
2024-01-11T11:53:42.908Z,200.83
2024-01-11T11:54:42.812Z,204.47
2024-01-11T11:55:42.766Z,208.02
2024-01-11T11:56:42.805Z,200.00
2024-01-11T11:57:42.839Z,199.60
2024-01-11T11:58:42.821Z,198.81
2024-01-11T11:59:42.884Z,199.01
2024-01-11T12:00:42.780Z,198.50
2024-01-11T12:01:42.791Z,200.00
2024-01-11T12:02:43.022Z,197.22
2024-01-11T12:03:42.859Z,197.46
2024-01-11T12:04:42.835Z,196.43
2024-01-11T12:05:42.953Z,192.80
2024-01-11T12:06:42.902Z,194.48
2024-01-11T12:07:42.855Z,193.00
2024-01-11T12:08:42.903Z,191.29
2024-01-11T12:09:42.868Z,192.67
2024-01-11T12:10:42.900Z,190.91
2024-01-11T12:11:43.349Z,191.71
2024-01-11T12:12:42.981Z,191.65
2024-01-11T12:13:43.012Z,190.73
2024-01-11T12:14:43.050Z,190.37
2024-01-11T12:15:43.037Z,189.41
2024-01-11T12:16:43.074Z,184.91
2024-01-11T12:17:43.197Z,185.75
2024-01-11T12:18:43.162Z,187.71
2024-01-11T12:19:43.046Z,185.88
2024-01-11T12:21:43.055Z,184.32
2024-01-11T12:22:43.053Z,183.79
2024-01-11T12:23:43.385Z,180.07
2024-01-11T12:24:43.201Z,177.10
2024-01-11T12:25:43.044Z,174.73
2024-01-11T12:26:43.130Z,175.08
2024-01-11T12:27:43.152Z,175.05
2024-01-11T12:28:43.379Z,174.65
2024-01-11T12:29:48.443Z,175.46
2024-01-11T12:30:44.174Z,175.54
2024-01-11T12:31:43.085Z,176.03
2024-01-11T12:32:43.186Z,175.66
2024-01-11T12:33:43.452Z,176.52
2024-01-11T12:34:43.181Z,177.55
2024-01-11T12:35:43.182Z,180.24
2024-01-11T12:36:43.090Z,182.96
2024-01-11T12:37:43.096Z,183.94
2024-01-11T12:38:43.160Z,185.71
2024-01-11T12:39:43.092Z,187.59
2024-01-11T12:40:43.143Z,189.71
2024-01-11T12:41:43.214Z,189.55
2024-01-11T12:42:43.113Z,189.69